sensor_id;sensor_type;location;lat;lon;timestamp;pressure;altitude;pressure_sealevel;temperature;humidity
21760;BME280;11041;50.854;20.580;2023-03-25T00:00:11;97608.03;;;12.08;86.07
21760;BME280;11041;50.854;20.580;2023-03-25T00:03:01;97615.66;;;12.14;86.00
21760;BME280;11041;50.854;20.580;2023-03-25T00:05:29;97603.47;;;12.00;86.05
21760;BME280;11041;50.854;20.580;2023-03-25T00:07:56;97606.13;;;11.96;87.10
21760;BME280;11041;50.854;20.580;2023-03-25T00:10:22;97599.66;;;11.88;87.68
21760;BME280;11041;50.854;20.580;2023-03-25T00:12:50;97606.16;;;11.84;88.21
21760;BME280;11041;50.854;20.580;2023-03-25T00:15:16;97624.75;;;11.87;88.60
21760;BME280;11041;50.854;20.580;2023-03-25T00:17:43;97592.91;;;11.73;88.98
21760;BME280;11041;50.854;20.580;2023-03-25T00:20:11;97598.78;;;11.72;90.01
21760;BME280;11041;50.854;20.580;2023-03-25T00:22:39;97592.28;;;11.64;90.48
21760;BME280;11041;50.854;20.580;2023-03-25T00:25:13;97602.38;;;11.60;90.96
21760;BME280;11041;50.854;20.580;2023-03-25T00:27:47;97598.44;;;11.61;91.57
21760;BME280;11041;50.854;20.580;2023-03-25T00:30:15;97611.53;;;11.64;92.26
21760;BME280;11041;50.854;20.580;2023-03-25T00:32:42;97604.66;;;11.58;92.41
21760;BME280;11041;50.854;20.580;2023-03-25T00:35:15;97615.66;;;11.58;92.73
21760;BME280;11041;50.854;20.580;2023-03-25T00:37:46;97604.16;;;11.40;93.54
21760;BME280;11041;50.854;20.580;2023-03-25T00:40:17;97619.84;;;11.40;93.68
21760;BME280;11041;50.854;20.580;2023-03-25T00:42:43;97625.00;;;11.41;94.38
21760;BME280;11041;50.854;20.580;2023-03-25T00:45:15;97590.56;;;11.19;94.77
21760;BME280;11041;50.854;20.580;2023-03-25T00:47:42;97610.03;;;11.26;95.31
21760;BME280;11041;50.854;20.580;2023-03-25T00:50:09;97615.28;;;11.32;95.29
21760;BME280;11041;50.854;20.580;2023-03-25T00:52:36;97593.81;;;11.09;95.51
21760;BME280;11041;50.854;20.580;2023-03-25T00:55:04;97623.00;;;11.26;96.08
21760;BME280;11041;50.854;20.580;2023-03-25T00:57:31;97623.34;;;11.24;96.05
21760;BME280;11041;50.854;20.580;2023-03-25T00:59:57;97592.56;;;11.06;96.03
21760;BME280;11041;50.854;20.580;2023-03-25T01:02:24;97608.91;;;11.15;96.87
21760;BME280;11041;50.854;20.580;2023-03-25T01:04:50;97597.47;;;11.01;96.55
21760;BME280;11041;50.854;20.580;2023-03-25T01:07:20;97615.81;;;11.09;96.73
21760;BME280;11041;50.854;20.580;2023-03-25T01:09:47;97600.47;;;10.96;96.84
21760;BME280;11041;50.854;20.580;2023-03-25T01:12:15;97589.81;;;10.94;97.32
21760;BME280;11041;50.854;20.580;2023-03-25T01:14:44;97588.22;;;10.93;97.26
21760;BME280;11041;50.854;20.580;2023-03-25T01:17:11;97591.22;;;10.88;97.37
21760;BME280;11041;50.854;20.580;2023-03-25T01:19:38;97597.16;;;10.90;97.32
21760;BME280;11041;50.854;20.580;2023-03-25T01:22:05;97571.75;;;10.81;97.72
21760;BME280;11041;50.854;20.580;2023-03-25T01:24:31;97611.13;;;10.97;97.99
21760;BME280;11041;50.854;20.580;2023-03-25T01:26:58;97578.50;;;10.83;97.92
21760;BME280;11041;50.854;20.580;2023-03-25T01:29:25;97573.72;;;10.80;98.20
21760;BME280;11041;50.854;20.580;2023-03-25T01:31:52;97576.22;;;10.85;98.10
21760;BME280;11041;50.854;20.580;2023-03-25T01:34:19;97589.72;;;10.91;97.90
21760;BME280;11041;50.854;20.580;2023-03-25T01:36:45;97593.50;;;10.86;98.13
21760;BME280;11041;50.854;20.580;2023-03-25T01:39:15;97591.78;;;10.81;97.86
21760;BME280;11041;50.854;20.580;2023-03-25T01:41:45;97606.44;;;10.85;98.23
21760;BME280;11041;50.854;20.580;2023-03-25T01:46:55;97602.78;;;10.81;97.98
21760;BME280;11041;50.854;20.580;2023-03-25T01:49:43;97616.97;;;10.83;98.35
21760;BME280;11041;50.854;20.580;2023-03-25T01:52:17;97612.50;;;10.79;98.08
21760;BME280;11041;50.854;20.580;2023-03-25T01:54:50;97588.50;;;10.63;98.36
21760;BME280;11041;50.854;20.580;2023-03-25T01:57:21;97600.03;;;10.69;98.25
21760;BME280;11041;50.854;20.580;2023-03-25T01:59:50;97603.81;;;10.64;98.57
21760;BME280;11041;50.854;20.580;2023-03-25T02:02:20;97587.00;;;10.54;98.24
21760;BME280;11041;50.854;20.580;2023-03-25T02:04:59;97613.31;;;10.67;98.38
21760;BME280;11041;50.854;20.580;2023-03-25T02:07:32;97579.09;;;10.52;97.98
21760;BME280;11041;50.854;20.580;2023-03-25T02:10:09;97590.53;;;10.54;98.37
21760;BME280;11041;50.854;20.580;2023-03-25T02:12:36;97575.31;;;10.44;98.47
21760;BME280;11041;50.854;20.580;2023-03-25T02:15:07;97591.56;;;10.50;98.46
21760;BME280;11041;50.854;20.580;2023-03-25T02:18:14;97595.34;;;10.57;98.35
21760;BME280;11041;50.854;20.580;2023-03-25T02:41:37;97590.50;;;10.17;98.10
21760;BME280;11041;50.854;20.580;2023-03-25T02:47:18;97576.63;;;10.01;97.34
21760;BME280;11041;50.854;20.580;2023-03-25T02:50:21;97561.16;;;9.85;97.06
21760;BME280;11041;50.854;20.580;2023-03-25T02:52:56;97575.66;;;9.85;97.29
21760;BME280;11041;50.854;20.580;2023-03-25T02:55:28;97584.44;;;9.78;97.19
21760;BME280;11041;50.854;20.580;2023-03-25T02:58:03;97576.31;;;9.70;96.95
21760;BME280;11041;50.854;20.580;2023-03-25T03:00:34;97580.19;;;9.69;96.64
21760;BME280;11041;50.854;20.580;2023-03-25T03:03:06;97579.44;;;9.59;96.57
21760;BME280;11041;50.854;20.580;2023-03-25T03:05:40;97592.03;;;9.60;96.03
21760;BME280;11041;50.854;20.580;2023-03-25T03:08:36;97599.00;;;9.58;95.80
21760;BME280;11041;50.854;20.580;2023-03-25T03:19:41;97603.75;;;9.28;95.05
21760;BME280;11041;50.854;20.580;2023-03-25T03:25:10;97581.91;;;8.98;95.02
21760;BME280;11041;50.854;20.580;2023-03-25T03:27:56;97617.66;;;9.02;95.15
21760;BME280;11041;50.854;20.580;2023-03-25T03:33:52;97624.03;;;8.85;95.61
21760;BME280;11041;50.854;20.580;2023-03-25T03:36:32;97600.44;;;8.71;95.96
21760;BME280;11041;50.854;20.580;2023-03-25T03:39:16;97607.72;;;8.67;96.44
21760;BME280;11041;50.854;20.580;2023-03-25T03:41:53;97610.75;;;8.74;96.39
21760;BME280;11041;50.854;20.580;2023-03-25T03:44:30;97590.88;;;8.57;96.58
21760;BME280;11041;50.854;20.580;2023-03-25T03:49:46;97630.22;;;8.73;96.92
21760;BME280;11041;50.854;20.580;2023-03-25T03:52:25;97623.53;;;8.62;96.56
21760;BME280;11041;50.854;20.580;2023-03-25T03:55:00;97616.50;;;8.52;96.82
21760;BME280;11041;50.854;20.580;2023-03-25T04:00:36;97617.81;;;8.46;97.45
21760;BME280;11041;50.854;20.580;2023-03-25T04:03:37;97625.03;;;8.50;97.44
21760;BME280;11041;50.854;20.580;2023-03-25T04:06:32;97636.75;;;8.60;97.31
21760;BME280;11041;50.854;20.580;2023-03-25T04:11:52;97603.50;;;8.40;97.14
21760;BME280;11041;50.854;20.580;2023-03-25T04:14:21;97609.47;;;8.42;97.21
21760;BME280;11041;50.854;20.580;2023-03-25T04:16:47;97606.38;;;8.44;97.16
21760;BME280;11041;50.854;20.580;2023-03-25T04:19:14;97635.00;;;8.55;97.06
21760;BME280;11041;50.854;20.580;2023-03-25T04:21:45;97639.19;;;8.61;97.05
21760;BME280;11041;50.854;20.580;2023-03-25T04:24:16;97641.63;;;8.54;96.88
21760;BME280;11041;50.854;20.580;2023-03-25T04:26:45;97654.66;;;8.57;96.52
21760;BME280;11041;50.854;20.580;2023-03-25T04:29:13;97652.50;;;8.63;96.45
21760;BME280;11041;50.854;20.580;2023-03-25T04:31:39;97641.44;;;8.59;96.86
21760;BME280;11041;50.854;20.580;2023-03-25T04:34:12;97642.06;;;8.56;95.92
21760;BME280;11041;50.854;20.580;2023-03-25T04:36:40;97666.22;;;8.63;95.87
21760;BME280;11041;50.854;20.580;2023-03-25T04:39:09;97647.72;;;8.60;95.10
21760;BME280;11041;50.854;20.580;2023-03-25T04:41:38;97653.78;;;8.65;95.14
21760;BME280;11041;50.854;20.580;2023-03-25T04:44:05;97646.28;;;8.53;95.21
21760;BME280;11041;50.854;20.580;2023-03-25T04:46:33;97645.63;;;8.57;95.53
21760;BME280;11041;50.854;20.580;2023-03-25T04:49:04;97654.28;;;8.67;95.44
21760;BME280;11041;50.854;20.580;2023-03-25T04:51:40;97627.59;;;8.56;95.15
21760;BME280;11041;50.854;20.580;2023-03-25T04:54:07;97640.44;;;8.64;94.91
21760;BME280;11041;50.854;20.580;2023-03-25T04:56:33;97652.19;;;8.64;95.09
21760;BME280;11041;50.854;20.580;2023-03-25T04:59:02;97657.81;;;8.68;94.89
21760;BME280;11041;50.854;20.580;2023-03-25T05:01:29;97629.06;;;8.53;95.19
21760;BME280;11041;50.854;20.580;2023-03-25T05:04:03;97654.78;;;8.61;95.05
21760;BME280;11041;50.854;20.580;2023-03-25T05:06:40;97638.06;;;8.53;95.11
21760;BME280;11041;50.854;20.580;2023-03-25T05:09:12;97658.78;;;8.63;95.15
21760;BME280;11041;50.854;20.580;2023-03-25T05:11:42;97660.72;;;8.63;94.42
21760;BME280;11041;50.854;20.580;2023-03-25T05:14:11;97657.50;;;8.61;94.64
21760;BME280;11041;50.854;20.580;2023-03-25T05:16:39;97649.53;;;8.47;94.27
21760;BME280;11041;50.854;20.580;2023-03-25T05:19:06;97665.13;;;8.55;94.73
21760;BME280;11041;50.854;20.580;2023-03-25T05:21:36;97635.69;;;8.43;94.80
21760;BME280;11041;50.854;20.580;2023-03-25T05:24:05;97657.69;;;8.56;94.67
21760;BME280;11041;50.854;20.580;2023-03-25T05:26:38;97641.03;;;8.40;94.46
21760;BME280;11041;50.854;20.580;2023-03-25T05:29:12;97644.84;;;8.39;94.60
21760;BME280;11041;50.854;20.580;2023-03-25T05:31:41;97642.31;;;8.33;94.82
21760;BME280;11041;50.854;20.580;2023-03-25T05:34:11;97662.88;;;8.48;95.08
21760;BME280;11041;50.854;20.580;2023-03-25T05:36:39;97652.13;;;8.43;94.89
21760;BME280;11041;50.854;20.580;2023-03-25T05:39:08;97666.13;;;8.42;95.03
21760;BME280;11041;50.854;20.580;2023-03-25T05:41:36;97676.91;;;8.47;95.00
21760;BME280;11041;50.854;20.580;2023-03-25T05:44:08;97659.06;;;8.41;94.68
21760;BME280;11041;50.854;20.580;2023-03-25T05:46:34;97678.03;;;8.46;94.67
21760;BME280;11041;50.854;20.580;2023-03-25T05:49:01;97662.94;;;8.40;94.38
21760;BME280;11041;50.854;20.580;2023-03-25T05:51:32;97678.50;;;8.48;94.50
21760;BME280;11041;50.854;20.580;2023-03-25T05:54:03;97669.00;;;8.37;94.30
21760;BME280;11041;50.854;20.580;2023-03-25T05:56:35;97660.34;;;8.35;94.26
21760;BME280;11041;50.854;20.580;2023-03-25T05:59:02;97691.69;;;8.55;94.37
21760;BME280;11041;50.854;20.580;2023-03-25T06:01:29;97678.34;;;8.53;94.48
21760;BME280;11041;50.854;20.580;2023-03-25T06:03:56;97693.13;;;8.61;93.85
21760;BME280;11041;50.854;20.580;2023-03-25T06:06:22;97697.59;;;8.65;93.94
21760;BME280;11041;50.854;20.580;2023-03-25T06:08:51;97701.31;;;8.69;93.93
21760;BME280;11041;50.854;20.580;2023-03-25T06:11:19;97687.31;;;8.62;94.25
21760;BME280;11041;50.854;20.580;2023-03-25T06:13:47;97691.50;;;8.68;94.27
21760;BME280;11041;50.854;20.580;2023-03-25T06:16:23;97664.63;;;8.62;93.26
21760;BME280;11041;50.854;20.580;2023-03-25T06:18:53;97680.19;;;8.70;92.39
21760;BME280;11041;50.854;20.580;2023-03-25T06:21:30;97697.28;;;8.76;92.72
21760;BME280;11041;50.854;20.580;2023-03-25T06:23:59;97699.13;;;8.92;92.44
21760;BME280;11041;50.854;20.580;2023-03-25T06:26:27;97658.28;;;8.70;92.53
21760;BME280;11041;50.854;20.580;2023-03-25T06:28:54;97693.97;;;8.91;92.50
21760;BME280;11041;50.854;20.580;2023-03-25T06:31:25;97703.41;;;9.02;92.07
21760;BME280;11041;50.854;20.580;2023-03-25T06:33:53;97702.88;;;9.09;92.09
21760;BME280;11041;50.854;20.580;2023-03-25T06:36:20;97708.72;;;9.07;92.26
21760;BME280;11041;50.854;20.580;2023-03-25T06:38:50;97692.91;;;9.04;92.39
21760;BME280;11041;50.854;20.580;2023-03-25T06:41:18;97704.59;;;9.22;90.50
21760;BME280;11041;50.854;20.580;2023-03-25T06:43:51;97698.78;;;9.24;90.53
21760;BME280;11041;50.854;20.580;2023-03-25T06:46:17;97691.41;;;9.15;90.03
21760;BME280;11041;50.854;20.580;2023-03-25T06:48:44;97688.94;;;9.23;90.45
21760;BME280;11041;50.854;20.580;2023-03-25T06:51:11;97703.88;;;9.34;88.79
21760;BME280;11041;50.854;20.580;2023-03-25T06:53:38;97705.41;;;9.44;88.50
21760;BME280;11041;50.854;20.580;2023-03-25T06:56:05;97703.69;;;9.39;89.10
21760;BME280;11041;50.854;20.580;2023-03-25T06:58:32;97689.50;;;9.37;88.09
21760;BME280;11041;50.854;20.580;2023-03-25T07:01:03;97700.06;;;9.47;88.31
21760;BME280;11041;50.854;20.580;2023-03-25T07:03:36;97698.59;;;9.50;88.62
21760;BME280;11041;50.854;20.580;2023-03-25T07:06:04;97692.97;;;9.46;88.50
21760;BME280;11041;50.854;20.580;2023-03-25T07:08:32;97702.31;;;9.45;87.43
21760;BME280;11041;50.854;20.580;2023-03-25T07:11:04;97693.50;;;9.39;87.92
21760;BME280;11041;50.854;20.580;2023-03-25T07:13:33;97711.97;;;9.51;87.54
21760;BME280;11041;50.854;20.580;2023-03-25T07:16:01;97725.63;;;9.60;87.88
21760;BME280;11041;50.854;20.580;2023-03-25T07:18:28;97719.16;;;9.65;86.90
21760;BME280;11041;50.854;20.580;2023-03-25T07:20:55;97714.78;;;9.64;85.82
21760;BME280;11041;50.854;20.580;2023-03-25T07:23:21;97725.34;;;9.74;85.59
21760;BME280;11041;50.854;20.580;2023-03-25T07:25:48;97711.03;;;9.68;85.49
21760;BME280;11041;50.854;20.580;2023-03-25T07:28:15;97747.56;;;9.81;85.30
21760;BME280;11041;50.854;20.580;2023-03-25T07:30:42;97729.97;;;9.82;85.64
21760;BME280;11041;50.854;20.580;2023-03-25T07:33:09;97729.09;;;9.90;85.09
21760;BME280;11041;50.854;20.580;2023-03-25T07:35:35;97704.88;;;9.71;85.07
21760;BME280;11041;50.854;20.580;2023-03-25T07:38:02;97709.09;;;9.69;85.18
21760;BME280;11041;50.854;20.580;2023-03-25T07:40:29;97729.50;;;9.80;85.71
21760;BME280;11041;50.854;20.580;2023-03-25T07:42:56;97726.34;;;9.90;85.90
21760;BME280;11041;50.854;20.580;2023-03-25T07:45:23;97685.56;;;9.68;86.35
21760;BME280;11041;50.854;20.580;2023-03-25T07:47:50;97721.59;;;9.99;86.24
21760;BME280;11041;50.854;20.580;2023-03-25T07:50:21;97708.34;;;10.01;84.30
21760;BME280;11041;50.854;20.580;2023-03-25T07:52:49;97697.22;;;9.98;84.43
21760;BME280;11041;50.854;20.580;2023-03-25T07:55:15;97717.41;;;10.14;84.35
21760;BME280;11041;50.854;20.580;2023-03-25T07:57:43;97701.50;;;10.08;84.38
21760;BME280;11041;50.854;20.580;2023-03-25T08:00:10;97733.13;;;10.26;83.99
21760;BME280;11041;50.854;20.580;2023-03-25T08:02:37;97711.28;;;10.17;83.11
21760;BME280;11041;50.854;20.580;2023-03-25T08:05:05;97731.63;;;10.37;83.59
21760;BME280;11041;50.854;20.580;2023-03-25T08:07:32;97727.84;;;10.42;84.01
21760;BME280;11041;50.854;20.580;2023-03-25T08:09:59;97717.28;;;10.32;84.06
21760;BME280;11041;50.854;20.580;2023-03-25T08:12:26;97719.16;;;10.40;83.55
21760;BME280;11041;50.854;20.580;2023-03-25T08:14:53;97722.03;;;10.56;83.54
21760;BME280;11041;50.854;20.580;2023-03-25T08:17:20;97700.28;;;10.51;81.45
21760;BME280;11041;50.854;20.580;2023-03-25T08:19:46;97696.97;;;10.45;82.32
21760;BME280;11041;50.854;20.580;2023-03-25T08:22:14;97707.16;;;10.57;81.87
21760;BME280;11041;50.854;20.580;2023-03-25T08:24:41;97724.81;;;10.68;80.41
21760;BME280;11041;50.854;20.580;2023-03-25T08:27:11;97717.94;;;10.62;80.44
21760;BME280;11041;50.854;20.580;2023-03-25T08:29:38;97693.06;;;10.46;80.14
21760;BME280;11041;50.854;20.580;2023-03-25T08:32:09;97727.75;;;10.63;79.19
21760;BME280;11041;50.854;20.580;2023-03-25T08:34:37;97721.00;;;10.60;79.14
21760;BME280;11041;50.854;20.580;2023-03-25T08:37:06;97730.06;;;10.61;79.65
21760;BME280;11041;50.854;20.580;2023-03-25T08:39:36;97726.97;;;10.62;79.01
21760;BME280;11041;50.854;20.580;2023-03-25T08:42:39;97715.19;;;10.62;78.77
21760;BME280;11041;50.854;20.580;2023-03-25T08:45:59;97715.88;;;10.59;79.90
21760;BME280;11041;50.854;20.580;2023-03-25T08:48:52;97693.44;;;10.69;78.94
21760;BME280;11041;50.854;20.580;2023-03-25T08:51:20;97690.00;;;10.84;79.07
21760;BME280;11041;50.854;20.580;2023-03-25T08:53:48;97698.63;;;11.07;78.49
21760;BME280;11041;50.854;20.580;2023-03-25T08:56:14;97680.41;;;11.03;78.55
21760;BME280;11041;50.854;20.580;2023-03-25T08:58:42;97678.91;;;11.18;76.95
21760;BME280;11041;50.854;20.580;2023-03-25T09:01:09;97707.31;;;11.22;75.56
21760;BME280;11041;50.854;20.580;2023-03-25T09:03:37;97684.63;;;11.13;76.05
21760;BME280;11041;50.854;20.580;2023-03-25T09:06:08;97686.81;;;11.19;76.33
21760;BME280;11041;50.854;20.580;2023-03-25T09:08:36;97712.22;;;11.41;75.86
21760;BME280;11041;50.854;20.580;2023-03-25T09:11:07;97706.03;;;11.44;74.78
21760;BME280;11041;50.854;20.580;2023-03-25T09:13:53;97693.31;;;11.39;73.87
21760;BME280;11041;50.854;20.580;2023-03-25T09:16:27;97705.69;;;11.45;74.34
21760;BME280;11041;50.854;20.580;2023-03-25T09:19:02;97692.41;;;11.35;74.50
21760;BME280;11041;50.854;20.580;2023-03-25T09:21:33;97696.44;;;11.38;73.84
21760;BME280;11041;50.854;20.580;2023-03-25T09:24:00;97712.91;;;11.50;74.28
21760;BME280;11041;50.854;20.580;2023-03-25T09:26:27;97715.66;;;11.50;74.09
21760;BME280;11041;50.854;20.580;2023-03-25T09:28:55;97677.25;;;11.41;75.28
21760;BME280;11041;50.854;20.580;2023-03-25T09:31:22;97694.28;;;11.59;74.91
21760;BME280;11041;50.854;20.580;2023-03-25T09:33:50;97698.03;;;11.79;73.51
21760;BME280;11041;50.854;20.580;2023-03-25T09:36:17;97691.94;;;11.86;73.36
21760;BME280;11041;50.854;20.580;2023-03-25T09:38:46;97679.66;;;11.96;70.85
21760;BME280;11041;50.854;20.580;2023-03-25T09:44:38;97678.63;;;12.00;70.92
21760;BME280;11041;50.854;20.580;2023-03-25T09:47:13;97684.13;;;12.00;71.41
21760;BME280;11041;50.854;20.580;2023-03-25T09:49:48;97674.31;;;12.15;69.20
21760;BME280;11041;50.854;20.580;2023-03-25T09:52:32;97673.94;;;12.17;69.29
21760;BME280;11041;50.854;20.580;2023-03-25T09:55:08;97669.34;;;12.21;70.28
21760;BME280;11041;50.854;20.580;2023-03-25T09:57:47;97674.50;;;12.38;68.92
21760;BME280;11041;50.854;20.580;2023-03-25T10:00:23;97667.22;;;12.46;70.49
21760;BME280;11041;50.854;20.580;2023-03-25T10:03:32;97671.50;;;12.59;66.92
21760;BME280;11041;50.854;20.580;2023-03-25T10:06:19;97669.00;;;12.70;67.64
21760;BME280;11041;50.854;20.580;2023-03-25T10:12:41;97659.69;;;12.90;65.77
21760;BME280;11041;50.854;20.580;2023-03-25T10:18:51;97657.72;;;13.07;65.19
21760;BME280;11041;50.854;20.580;2023-03-25T10:22:05;97638.16;;;12.96;65.84
21760;BME280;11041;50.854;20.580;2023-03-25T10:25:25;97657.78;;;13.10;66.14
21760;BME280;11041;50.854;20.580;2023-03-25T10:27:55;97655.97;;;13.18;65.47
21760;BME280;11041;50.854;20.580;2023-03-25T10:30:26;97619.91;;;13.07;65.62
21760;BME280;11041;50.854;20.580;2023-03-25T10:33:00;97640.41;;;13.26;66.47
21760;BME280;11041;50.854;20.580;2023-03-25T10:35:34;97608.06;;;13.07;66.71
21760;BME280;11041;50.854;20.580;2023-03-25T10:38:17;97633.84;;;13.30;65.21
21760;BME280;11041;50.854;20.580;2023-03-25T10:43:56;97635.31;;;13.43;63.47
21760;BME280;11041;50.854;20.580;2023-03-25T10:47:14;97631.81;;;13.47;64.39
21760;BME280;11041;50.854;20.580;2023-03-25T10:49:27;97614.19;;;13.51;62.22
21760;BME280;11041;50.854;20.580;2023-03-25T10:51:58;97625.47;;;13.62;60.73
21760;BME280;11041;50.854;20.580;2023-03-25T10:54:35;97587.59;;;13.43;60.26
21760;BME280;11041;50.854;20.580;2023-03-25T10:57:10;97578.38;;;13.35;60.26
21760;BME280;11041;50.854;20.580;2023-03-25T10:59:47;97599.69;;;13.54;59.82
21760;BME280;11041;50.854;20.580;2023-03-25T11:02:25;97615.66;;;13.64;60.02
21760;BME280;11041;50.854;20.580;2023-03-25T11:05:20;97604.53;;;13.61;60.43
21760;BME280;11041;50.854;20.580;2023-03-25T11:07:57;97610.03;;;13.61;60.31
21760;BME280;11041;50.854;20.580;2023-03-25T11:10:32;97586.44;;;13.44;60.29
21760;BME280;11041;50.854;20.580;2023-03-25T11:13:01;97595.94;;;13.47;61.50
21760;BME280;11041;50.854;20.580;2023-03-25T11:15:34;97590.94;;;13.52;60.77
21760;BME280;11041;50.854;20.580;2023-03-25T11:18:21;97577.38;;;13.43;61.34
21760;BME280;11041;50.854;20.580;2023-03-25T11:21:11;97572.94;;;13.58;60.81
21760;BME280;11041;50.854;20.580;2023-03-25T11:23:50;97539.00;;;13.58;60.54
21760;BME280;11041;50.854;20.580;2023-03-25T11:26:29;97574.41;;;13.95;58.90
21760;BME280;11041;50.854;20.580;2023-03-25T11:29:12;97556.38;;;14.01;58.97
21760;BME280;11041;50.854;20.580;2023-03-25T11:31:41;97545.50;;;14.12;58.66
21760;BME280;11041;50.854;20.580;2023-03-25T11:37:21;97556.22;;;14.59;57.59
21760;BME280;11041;50.854;20.580;2023-03-25T11:39:53;97528.00;;;14.50;57.34
21760;BME280;11041;50.854;20.580;2023-03-25T11:42:30;97542.81;;;14.88;56.93
21760;BME280;11041;50.854;20.580;2023-03-25T11:45:00;97527.69;;;15.08;54.70
21760;BME280;11041;50.854;20.580;2023-03-25T11:47:37;97527.25;;;15.37;54.18
21760;BME280;11041;50.854;20.580;2023-03-25T11:50:06;97508.88;;;15.51;52.02
21760;BME280;11041;50.854;20.580;2023-03-25T11:52:45;97526.53;;;15.73;50.95
21760;BME280;11041;50.854;20.580;2023-03-25T11:58:32;97503.06;;;16.01;50.95
21760;BME280;11041;50.854;20.580;2023-03-25T12:01:16;97506.69;;;16.09;50.76
21760;BME280;11041;50.854;20.580;2023-03-25T12:03:45;97502.09;;;16.24;50.08
21760;BME280;11041;50.854;20.580;2023-03-25T12:06:18;97499.75;;;16.29;50.33
21760;BME280;11041;50.854;20.580;2023-03-25T12:08:53;97492.94;;;16.23;49.36
21760;BME280;11041;50.854;20.580;2023-03-25T12:15:06;97493.66;;;16.09;48.95
21760;BME280;11041;50.854;20.580;2023-03-25T12:23:32;97446.41;;;15.54;49.45
21760;BME280;11041;50.854;20.580;2023-03-25T12:26:36;97460.50;;;15.75;48.13
21760;BME280;11041;50.854;20.580;2023-03-25T12:29:39;97468.16;;;15.93;47.39
21760;BME280;11041;50.854;20.580;2023-03-25T12:32:46;97466.19;;;15.93;47.10
21760;BME280;11041;50.854;20.580;2023-03-25T12:47:42;97473.94;;;15.43;47.34
21760;BME280;11041;50.854;20.580;2023-03-25T12:50:40;97464.81;;;15.05;47.59
21760;BME280;11041;50.854;20.580;2023-03-25T12:53:43;97500.31;;;15.00;49.55
21760;BME280;11041;50.854;20.580;2023-03-25T12:59:45;97519.78;;;13.84;57.99
21760;BME280;11041;50.854;20.580;2023-03-25T13:02:29;97554.06;;;13.06;66.39
21760;BME280;11041;50.854;20.580;2023-03-25T13:08:25;97515.34;;;11.12;77.60
21760;BME280;11041;50.854;20.580;2023-03-25T13:11:06;97522.56;;;11.04;82.62
21760;BME280;11041;50.854;20.580;2023-03-25T13:13:38;97518.09;;;11.12;84.39
21760;BME280;11041;50.854;20.580;2023-03-25T13:16:12;97487.00;;;10.95;83.53
21760;BME280;11041;50.854;20.580;2023-03-25T13:19:04;97480.34;;;10.96;83.82
21760;BME280;11041;50.854;20.580;2023-03-25T13:22:02;97467.50;;;11.00;85.11
21760;BME280;11041;50.854;20.580;2023-03-25T13:24:56;97489.19;;;11.46;84.82
21760;BME280;11041;50.854;20.580;2023-03-25T13:27:30;97471.56;;;11.63;82.75
21760;BME280;11041;50.854;20.580;2023-03-25T13:29:59;97471.88;;;11.89;80.39
21760;BME280;11041;50.854;20.580;2023-03-25T13:32:48;97468.75;;;12.23;77.06
21760;BME280;11041;50.854;20.580;2023-03-25T13:38:00;97459.34;;;12.78;76.90
21760;BME280;11041;50.854;20.580;2023-03-25T13:40:39;97448.91;;;13.07;75.13
21760;BME280;11041;50.854;20.580;2023-03-25T13:43:28;97470.47;;;13.21;74.70
21760;BME280;11041;50.854;20.580;2023-03-25T13:48:49;97474.38;;;12.81;76.62
21760;BME280;11041;50.854;20.580;2023-03-25T13:51:18;97484.19;;;12.63;79.67
21760;BME280;11041;50.854;20.580;2023-03-25T13:54:19;97488.91;;;12.62;80.96
21760;BME280;11041;50.854;20.580;2023-03-25T14:00:12;97489.66;;;12.43;77.40
21760;BME280;11041;50.854;20.580;2023-03-25T14:12:13;97466.47;;;12.44;76.65
21760;BME280;11041;50.854;20.580;2023-03-25T14:14:49;97460.03;;;12.36;76.66
21760;BME280;11041;50.854;20.580;2023-03-25T14:17:19;97442.94;;;12.31;76.89
21760;BME280;11041;50.854;20.580;2023-03-25T14:19:51;97460.34;;;12.51;76.72
21760;BME280;11041;50.854;20.580;2023-03-25T14:22:30;97471.59;;;12.62;76.28
21760;BME280;11041;50.854;20.580;2023-03-25T14:24:59;97489.44;;;12.68;76.41
21760;BME280;11041;50.854;20.580;2023-03-25T14:30:26;97488.59;;;12.83;77.05
21760;BME280;11041;50.854;20.580;2023-03-25T14:32:55;97495.09;;;12.55;76.96
21760;BME280;11041;50.854;20.580;2023-03-25T14:43:38;97465.81;;;12.15;76.02
21760;BME280;11041;50.854;20.580;2023-03-25T14:49:09;97468.28;;;12.36;75.61
21760;BME280;11041;50.854;20.580;2023-03-25T14:59:42;97475.88;;;12.59;73.35
21760;BME280;11041;50.854;20.580;2023-03-25T15:02:32;97480.59;;;12.58;74.98
21760;BME280;11041;50.854;20.580;2023-03-25T15:05:25;97492.97;;;12.49;75.97
21760;BME280;11041;50.854;20.580;2023-03-25T15:08:14;97518.22;;;12.35;78.15
21760;BME280;11041;50.854;20.580;2023-03-25T15:11:06;97513.41;;;12.16;71.68
21760;BME280;11041;50.854;20.580;2023-03-25T15:13:46;97465.16;;;11.75;75.59
21760;BME280;11041;50.854;20.580;2023-03-25T15:16:32;97471.63;;;11.50;76.26
21760;BME280;11041;50.854;20.580;2023-03-25T15:19:10;97508.19;;;11.51;80.00
21760;BME280;11041;50.854;20.580;2023-03-25T15:24:48;97489.94;;;11.02;81.64
21760;BME280;11041;50.854;20.580;2023-03-25T15:27:55;97476.03;;;10.83;81.14
21760;BME280;11041;50.854;20.580;2023-03-25T15:42:24;97479.97;;;10.57;81.74
21760;BME280;11041;50.854;20.580;2023-03-25T15:45:34;97460.66;;;10.54;82.30
21760;BME280;11041;50.854;20.580;2023-03-25T15:55:13;97480.91;;;10.49;82.39
21760;BME280;11041;50.854;20.580;2023-03-25T15:57:56;97465.72;;;10.39;81.16
21760;BME280;11041;50.854;20.580;2023-03-25T16:00:52;97472.56;;;10.45;80.95
21760;BME280;11041;50.854;20.580;2023-03-25T16:03:29;97471.09;;;10.36;81.51
21760;BME280;11041;50.854;20.580;2023-03-25T16:06:04;97491.31;;;10.43;79.80
21760;BME280;11041;50.854;20.580;2023-03-25T16:08:39;97494.31;;;10.38;81.33